La rose des vents
Donnes mto: Semaine 26/05/08 - 01/06/08 (S 22)
Date Horaire Temp. E. Hum. E. P.atmo. Pluie Vent 1mn Direction Ensoleilleme Ev.Tr. Solaire P. de rose Temp au vent Rafales
26/05/2008 00:00 17,7 C 79 % 1010,8 hPa 0,0 l/m 2,9 km/h (1 Bft) E-SE 0,00 h 0,025 mm 0 W/m 14,0 C 17,7 C 5,0 km/h (1 Bft)
26/05/2008 01:00 19,0 C 69 % 1010,9 hPa 0,0 l/m 4,6 km/h (1 Bft) N-NE 0,00 h 0,025 mm 0 W/m 13,1 C 19,0 C 7,3 km/h (2 Bft)
26/05/2008 02:00 18,8 C 69 % 1010,8 hPa 0,0 l/m 2,0 km/h (1 Bft) N-NO 0,00 h 0,051 mm 0 W/m 12,9 C 18,8 C 3,7 km/h (1 Bft)
26/05/2008 03:00 18,2 C 71 % 1010,6 hPa 0,0 l/m 2,2 km/h (1 Bft) N-NO 0,00 h 0,051 mm 0 W/m 12,8 C 18,2 C 4,3 km/h (1 Bft)
26/05/2008 04:00 18,5 C 69 % 1010,3 hPa 0,0 l/m 3,1 km/h (1 Bft) O 0,00 h 0,025 mm 0 W/m 12,6 C 18,5 C 5,2 km/h (1 Bft)
26/05/2008 05:00 18,3 C 68 % 1010,2 hPa 0,0 l/m 2,0 km/h (1 Bft) O-NO 0,00 h 0,051 mm 0 W/m 12,4 C 18,3 C 3,1 km/h (1 Bft)
26/05/2008 06:00 18,2 C 69 % 1010,6 hPa 0,0 l/m 1,9 km/h (1 Bft) E 0,00 h 0,025 mm 19 W/m 12,4 C 18,2 C 3,0 km/h (1 Bft)
26/05/2008 07:00 17,8 C 73 % 1010,2 hPa 0,0 l/m 3,5 km/h (1 Bft) NE 0,00 h 0,025 mm 41 W/m 13,0 C 17,8 C 5,3 km/h (1 Bft)
26/05/2008 08:00 17,8 C 78 % 1011,0 hPa 0,0 l/m 3,5 km/h (1 Bft) N 0,00 h 0,051 mm 62 W/m 14,0 C 17,8 C 5,2 km/h (1 Bft)
26/05/2008 09:00 18,9 C 78 % 1011,1 hPa 0,2 l/m 2,5 km/h (1 Bft) N 0,00 h 0,051 mm 155 W/m 14,9 C 18,9 C 4,5 km/h (1 Bft)
26/05/2008 10:00 18,7 C 83 % 1010,8 hPa 0,2 l/m 4,7 km/h (1 Bft) E-NE 0,00 h 0,102 mm 78 W/m 15,7 C 18,7 C 6,7 km/h (2 Bft)
26/05/2008 11:00 17,8 C 87 % 1011,2 hPa 0,2 l/m 12,2 km/h (2 Bft) E-NE 0,00 h 0,051 mm 44 W/m 15,5 C 17,8 C 16,3 km/h (3 Bft)
26/05/2008 12:00 17,9 C 82 % 1010,4 hPa 0,0 l/m 13,5 km/h (3 Bft) NE 0,00 h 0,051 mm 66 W/m 14,8 C 17,9 C 19,5 km/h (3 Bft)
26/05/2008 13:00 18,4 C 79 % 1010,0 hPa 0,4 l/m 11,7 km/h (2 Bft) NE 0,00 h 0,076 mm 73 W/m 14,7 C 18,4 C 17,4 km/h (3 Bft)
26/05/2008 14:00 20,2 C 72 % 1009,2 hPa 0,2 l/m 5,5 km/h (1 Bft) N 0,15 h 0,076 mm 241 W/m 14,9 C 20,2 C 8,6 km/h (2 Bft)
26/05/2008 15:00 22,6 C 67 % 1009,1 hPa 0,0 l/m 6,2 km/h (2 Bft) E 0,25 h 0,152 mm 357 W/m 16,0 C 22,6 C 9,8 km/h (2 Bft)
26/05/2008 16:00 22,7 C 64 % 1009,2 hPa 0,2 l/m 5,3 km/h (1 Bft) E 0,23 h 0,254 mm 243 W/m 15,5 C 22,7 C 8,4 km/h (2 Bft)
26/05/2008 17:00 20,8 C 78 % 1008,9 hPa 0,0 l/m 6,2 km/h (2 Bft) NE 0,30 h 0,178 mm 206 W/m 16,9 C 20,8 C 8,6 km/h (2 Bft)
26/05/2008 18:00 22,3 C 72 % 1008,2 hPa 0,0 l/m 4,1 km/h (1 Bft) NE 0,12 h 0,152 mm 153 W/m 17,0 C 22,3 C 6,6 km/h (2 Bft)
26/05/2008 19:00 22,0 C 73 % 1007,8 hPa 0,0 l/m 6,3 km/h (2 Bft) NE 0,05 h 0,127 mm 101 W/m 16,9 C 22,0 C 8,6 km/h (2 Bft)
26/05/2008 20:00 21,0 C 72 % 1007,9 hPa 0,0 l/m 8,3 km/h (2 Bft) E-NE 0,00 h 0,102 mm 22 W/m 15,8 C 21,0 C 11,5 km/h (2 Bft)
26/05/2008 21:00 20,3 C 72 % 1008,2 hPa 0,0 l/m 4,3 km/h (1 Bft) NE 0,00 h 0,051 mm 0 W/m 15,1 C 20,3 C 6,6 km/h (2 Bft)
26/05/2008 22:00 20,8 C 61 % 1009,3 hPa 0,0 l/m 9,2 km/h (2 Bft) N-NE 0,00 h 0,025 mm 0 W/m 12,9 C 20,8 C 14,3 km/h (3 Bft)
26/05/2008 23:00 21,5 C 50 % 1009,3 hPa 0,0 l/m 7,9 km/h (2 Bft) N-NE 0,00 h 0,076 mm 0 W/m 10,7 C 21,5 C 11,8 km/h (2 Bft)
27/05/2008 00:00 21,0 C 50 % 1008,7 hPa 0,0 l/m 8,6 km/h (2 Bft) N-NE 0,00 h 0,102 mm 0 W/m 10,3 C 21,0 C 13,1 km/h (3 Bft)
27/05/2008 01:00 21,2 C 50 % 1008,3 hPa 0,0 l/m 5,8 km/h (2 Bft) N-NE 0,00 h 0,102 mm 0 W/m 10,4 C 21,2 C 9,1 km/h (2 Bft)
27/05/2008 02:00 19,9 C 55 % 1008,0 hPa 0,0 l/m 3,3 km/h (1 Bft) N-NE 0,00 h 0,076 mm 0 W/m 10,5 C 19,9 C 5,6 km/h (1 Bft)
27/05/2008 03:00 19,9 C 55 % 1007,3 hPa 0,0 l/m 5,2 km/h (1 Bft) NE 0,00 h 0,051 mm 0 W/m 10,7 C 19,9 C 6,9 km/h (2 Bft)
27/05/2008 04:00 20,2 C 55 % 1007,6 hPa 0,2 l/m 7,1 km/h (2 Bft) NE 0,00 h 0,076 mm 0 W/m 11,0 C 20,2 C 10,3 km/h (2 Bft)
27/05/2008 05:00 21,5 C 47 % 1007,4 hPa 0,0 l/m 7,7 km/h (2 Bft) N-NE 0,00 h 0,076 mm 7 W/m 9,8 C 21,5 C 11,8 km/h (2 Bft)
27/05/2008 06:00 21,5 C 47 % 1007,2 hPa 0,0 l/m 6,3 km/h (2 Bft) N-NE 0,02 h 0,076 mm 16 W/m 9,7 C 21,5 C 9,7 km/h (2 Bft)
27/05/2008 07:00 20,4 C 56 % 1007,2 hPa 0,2 l/m 8,7 km/h (2 Bft) N-NE 0,00 h 0,076 mm 41 W/m 11,3 C 20,4 C 13,7 km/h (3 Bft)
27/05/2008 08:00 21,7 C 51 % 1006,6 hPa 0,8 l/m 10,3 km/h (2 Bft) N-NE 0,00 h 0,102 mm 86 W/m 11,2 C 21,7 C 15,9 km/h (3 Bft)
27/05/2008 09:00 19,0 C 73 % 1007,6 hPa 0,8 l/m 9,6 km/h (2 Bft) N 0,00 h 0,127 mm 80 W/m 14,0 C 19,0 C 14,8 km/h (3 Bft)
27/05/2008 10:00 19,1 C 72 % 1006,0 hPa 0,0 l/m 10,6 km/h (2 Bft) N-NE 0,00 h 0,102 mm 89 W/m 14,0 C 19,1 C 15,6 km/h (3 Bft)
27/05/2008 11:00 20,2 C 70 % 1006,1 hPa 0,2 l/m 6,3 km/h (2 Bft) N-NE 0,00 h 0,102 mm 108 W/m 14,6 C 20,2 C 9,5 km/h (2 Bft)
27/05/2008 12:00 23,6 C 63 % 1005,7 hPa 0,0 l/m 10,3 km/h (2 Bft) NE 0,58 h 0,102 mm 563 W/m 16,0 C 23,6 C 14,9 km/h (3 Bft)
27/05/2008 13:00 25,5 C 45 % 1005,2 hPa 0,0 l/m 24,3 km/h (4 Bft) E-NE 0,08 h 0,406 mm 340 W/m 12,6 C 25,5 C 33,4 km/h (5 Bft)
27/05/2008 14:00 25,0 C 44 % 1005,0 hPa 0,0 l/m 23,8 km/h (4 Bft) E-NE 0,00 h 0,432 mm 201 W/m 12,0 C 25,0 C 32,3 km/h (5 Bft)
27/05/2008 15:00 24,7 C 48 % 1005,2 hPa 0,0 l/m 23,1 km/h (4 Bft) E-NE 0,08 h 0,356 mm 254 W/m 12,8 C 24,7 C 31,4 km/h (5 Bft)
27/05/2008 16:00 25,7 C 43 % 1005,0 hPa 0,0 l/m 26,7 km/h (4 Bft) E-NE 0,33 h 0,381 mm 345 W/m 12,2 C 25,7 C 36,6 km/h (5 Bft)
27/05/2008 17:00 25,4 C 41 % 1004,7 hPa 0,0 l/m 24,9 km/h (4 Bft) E-NE 0,03 h 0,483 mm 207 W/m 11,1 C 25,4 C 35,1 km/h (5 Bft)
27/05/2008 18:00 24,8 C 41 % 1004,8 hPa 0,0 l/m 28,7 km/h (4 Bft) E-NE 0,00 h 0,381 mm 105 W/m 10,5 C 24,8 C 39,7 km/h (6 Bft)
27/05/2008 19:00 23,5 C 48 % 1005,7 hPa 0,0 l/m 24,3 km/h (4 Bft) E-NE 0,00 h 0,330 mm 50 W/m 11,7 C 23,5 C 33,1 km/h (5 Bft)
27/05/2008 20:00 21,9 C 56 % 1006,2 hPa 0,0 l/m 17,9 km/h (3 Bft) E-NE 0,00 h 0,229 mm 15 W/m 12,7 C 21,9 C 24,9 km/h (4 Bft)
27/05/2008 21:00 21,5 C 57 % 1006,8 hPa 0,0 l/m 10,8 km/h (2 Bft) E 0,00 h 0,127 mm 0 W/m 12,6 C 21,5 C 16,5 km/h (3 Bft)
27/05/2008 22:00 20,5 C 67 % 1008,1 hPa 0,0 l/m 13,9 km/h (3 Bft) E 0,00 h 0,076 mm 0 W/m 14,0 C 20,5 C 19,8 km/h (3 Bft)
27/05/2008 23:00 19,5 C 76 % 1009,0 hPa 0,0 l/m 9,7 km/h (2 Bft) E-NE 0,00 h 0,076 mm 0 W/m 15,0 C 19,5 C 13,1 km/h (3 Bft)
28/05/2008 00:00 19,1 C 78 % 1008,9 hPa 0,0 l/m 4,6 km/h (1 Bft) E-NE 0,00 h 0,051 mm 0 W/m 15,2 C 19,1 C 6,9 km/h (2 Bft)
28/05/2008 01:00 18,7 C 82 % 1009,5 hPa 0,0 l/m 6,7 km/h (2 Bft) S 0,00 h 0,025 mm 0 W/m 15,5 C 18,7 C 9,6 km/h (2 Bft)
28/05/2008 02:00 18,1 C 85 % 1010,0 hPa 0,0 l/m 3,7 km/h (1 Bft) NE 0,00 h 0,025 mm 0 W/m 15,6 C 18,1 C 6,0 km/h (2 Bft)
28/05/2008 03:00 17,8 C 88 % 1010,1 hPa 0,0 l/m 4,7 km/h (1 Bft) E-NE 0,00 h 0,025 mm 0 W/m 15,7 C 17,8 C 6,6 km/h (2 Bft)
28/05/2008 04:00 17,4 C 90 % 1010,0 hPa 0,0 l/m 3,3 km/h (1 Bft) E-NE 0,00 h 0,025 mm 0 W/m 15,6 C 17,4 C 4,7 km/h (1 Bft)
28/05/2008 05:00 17,1 C 91 % 1010,1 hPa 0,0 l/m 0,6 km/h (0 Bft) E 0,00 h 0,025 mm 0 W/m 15,7 C 17,1 C 1,5 km/h (1 Bft)
28/05/2008 06:00 17,1 C 93 % 1010,6 hPa 0,0 l/m 0,8 km/h (0 Bft) N-NE 0,00 h 0,000 mm 30 W/m 15,9 C 17,1 C 1,7 km/h (1 Bft)
28/05/2008 07:00 17,4 C 93 % 1011,1 hPa 0,0 l/m 2,2 km/h (1 Bft) E-SE 0,00 h 0,025 mm 51 W/m 16,3 C 17,4 C 4,0 km/h (1 Bft)
28/05/2008 08:00 18,0 C 94 % 1011,5 hPa 0,0 l/m 2,9 km/h (1 Bft) NE 0,02 h 0,025 mm 154 W/m 17,0 C 18,0 C 5,0 km/h (1 Bft)
28/05/2008 09:00 19,4 C 88 % 1012,1 hPa 0,0 l/m 3,7 km/h (1 Bft) E-NE 0,08 h 0,102 mm 263 W/m 17,4 C 19,4 C 6,3 km/h (2 Bft)
28/05/2008 10:00 20,9 C 79 % 1012,2 hPa 0,0 l/m 4,9 km/h (1 Bft) E-SE 0,63 h 0,152 mm 424 W/m 17,1 C 20,9 C 8,4 km/h (2 Bft)
28/05/2008 11:00 20,6 C 80 % 1012,2 hPa 0,0 l/m 4,5 km/h (1 Bft) E 0,08 h 0,254 mm 376 W/m 17,0 C 20,6 C 7,4 km/h (2 Bft)
28/05/2008 12:00 20,8 C 79 % 1011,9 hPa 0,0 l/m 4,5 km/h (1 Bft) E 0,00 h 0,229 mm 372 W/m 16,9 C 20,8 C 7,2 km/h (2 Bft)
28/05/2008 13:00 21,4 C 78 % 1012,0 hPa 0,0 l/m 6,0 km/h (2 Bft) E 0,12 h 0,229 mm 412 W/m 17,3 C 21,4 C 8,7 km/h (2 Bft)
28/05/2008 14:00 22,1 C 77 % 1011,9 hPa 0,0 l/m 8,2 km/h (2 Bft) E-NE 0,17 h 0,279 mm 427 W/m 17,8 C 22,1 C 12,0 km/h (2 Bft)
28/05/2008 15:00 22,3 C 74 % 1011,3 hPa 0,0 l/m 3,7 km/h (1 Bft) NE 0,52 h 0,279 mm 458 W/m 17,5 C 22,3 C 6,5 km/h (2 Bft)
28/05/2008 16:00 22,5 C 73 % 1010,2 hPa 0,0 l/m 5,9 km/h (2 Bft) E-NE 0,65 h 0,305 mm 399 W/m 17,4 C 22,5 C 9,6 km/h (2 Bft)
28/05/2008 17:00 21,8 C 74 % 1009,3 hPa 0,0 l/m 2,3 km/h (1 Bft) N-NE 0,05 h 0,279 mm 233 W/m 16,9 C 21,8 C 4,5 km/h (1 Bft)
28/05/2008 18:00 22,5 C 70 % 1008,1 hPa 0,0 l/m 1,5 km/h (1 Bft) NE 0,00 h 0,152 mm 165 W/m 16,7 C 22,5 C 3,3 km/h (1 Bft)
28/05/2008 19:00 21,8 C 71 % 1008,7 hPa 0,0 l/m 4,9 km/h (1 Bft) S-SE 0,00 h 0,102 mm 52 W/m 16,2 C 21,8 C 7,3 km/h (2 Bft)
28/05/2008 20:00 21,0 C 74 % 1009,4 hPa 0,0 l/m 8,2 km/h (2 Bft) E-NE 0,00 h 0,051 mm 13 W/m 16,1 C 21,0 C 12,1 km/h (2 Bft)
28/05/2008 21:00 20,1 C 79 % 1009,5 hPa 0,0 l/m 3,3 km/h (1 Bft) E 0,00 h 0,051 mm 0 W/m 16,3 C 20,1 C 5,8 km/h (2 Bft)
28/05/2008 22:00 19,9 C 80 % 1010,1 hPa 0,0 l/m 4,5 km/h (1 Bft) E 0,00 h 0,025 mm 0 W/m 16,4 C 19,9 C 7,1 km/h (2 Bft)
28/05/2008 23:00 20,4 C 73 % 1009,7 hPa 0,0 l/m 9,1 km/h (2 Bft) NE 0,00 h 0,025 mm 0 W/m 15,3 C 20,4 C 13,1 km/h (3 Bft)
29/05/2008 00:00 20,2 C 75 % 1010,0 hPa 0,4 l/m 10,5 km/h (2 Bft) E 0,00 h 0,051 mm 0 W/m 15,5 C 20,2 C 15,2 km/h (3 Bft)
29/05/2008 01:00 18,1 C 85 % 1009,4 hPa 1,8 l/m 8,8 km/h (2 Bft) N 0,00 h 0,051 mm 0 W/m 15,6 C 18,1 C 14,6 km/h (3 Bft)
29/05/2008 02:00 17,0 C 90 % 1007,9 hPa 0,6 l/m 6,9 km/h (2 Bft) N 0,00 h 0,025 mm 0 W/m 15,3 C 17,0 C 12,9 km/h (3 Bft)
29/05/2008 03:00 17,5 C 88 % 1007,5 hPa 0,8 l/m 3,8 km/h (1 Bft) N 0,00 h 0,025 mm 0 W/m 15,4 C 17,5 C 6,8 km/h (2 Bft)
29/05/2008 04:00 17,5 C 88 % 1009,5 hPa 5,4 l/m 12,5 km/h (3 Bft) S 0,00 h 0,025 mm 0 W/m 15,4 C 17,5 C 17,3 km/h (3 Bft)
29/05/2008 05:00 16,7 C 93 % 1007,4 hPa 2,0 l/m 11,0 km/h (2 Bft) N 0,00 h 0,025 mm 0 W/m 15,6 C 16,7 C 19,0 km/h (3 Bft)
29/05/2008 06:00 16,6 C 94 % 1007,1 hPa 0,0 l/m 6,9 km/h (2 Bft) N 0,00 h 0,025 mm 23 W/m 15,6 C 16,6 C 12,7 km/h (3 Bft)
29/05/2008 07:00 17,8 C 92 % 1006,8 hPa 0,0 l/m 5,9 km/h (2 Bft) N 0,00 h 0,025 mm 77 W/m 16,4 C 17,8 C 10,4 km/h (2 Bft)
29/05/2008 08:00 18,7 C 85 % 1007,3 hPa 1,2 l/m 7,2 km/h (2 Bft) N-NE 0,00 h 0,051 mm 41 W/m 16,1 C 18,7 C 10,7 km/h (2 Bft)
29/05/2008 09:00 17,7 C 88 % 1008,6 hPa 8,6 l/m 7,0 km/h (2 Bft) O-SO 0,00 h 0,051 mm 19 W/m 15,7 C 17,7 C 9,9 km/h (2 Bft)
29/05/2008 10:00 17,2 C 93 % 1008,3 hPa 0,6 l/m 6,5 km/h (2 Bft) N-NO 0,00 h 0,025 mm 60 W/m 16,0 C 17,2 C 10,8 km/h (2 Bft)
29/05/2008 11:00 17,0 C 93 % 1008,6 hPa 7,6 l/m 6,5 km/h (2 Bft) S-SO 0,00 h 0,051 mm 21 W/m 15,9 C 17,0 C 8,7 km/h (2 Bft)
29/05/2008 12:00 17,1 C 95 % 1009,0 hPa 2,6 l/m 5,4 km/h (1 Bft) NE 0,00 h 0,025 mm 76 W/m 16,2 C 17,1 C 8,5 km/h (2 Bft)
29/05/2008 13:00 18,0 C 96 % 1008,3 hPa 0,0 l/m 2,7 km/h (1 Bft) O-NO 0,00 h 0,051 mm 228 W/m 17,4 C 18,0 C 4,7 km/h (1 Bft)
29/05/2008 14:00 19,0 C 92 % 1008,1 hPa 0,0 l/m 3,8 km/h (1 Bft) E 0,00 h 0,127 mm 252 W/m 17,6 C 19,0 C 6,3 km/h (2 Bft)
29/05/2008 15:00 19,5 C 89 % 1007,5 hPa 0,0 l/m 3,0 km/h (1 Bft) E 0,00 h 0,152 mm 209 W/m 17,7 C 19,5 C 5,4 km/h (1 Bft)
29/05/2008 16:00 18,6 C 90 % 1007,5 hPa 0,0 l/m 7,8 km/h (2 Bft) E 0,00 h 0,127 mm 95 W/m 16,9 C 18,6 C 11,4 km/h (2 Bft)
29/05/2008 17:00 18,4 C 90 % 1007,7 hPa 0,0 l/m 5,8 km/h (2 Bft) E-NE 0,00 h 0,076 mm 126 W/m 16,7 C 18,4 C 8,5 km/h (2 Bft)
29/05/2008 18:00 19,3 C 86 % 1007,1 hPa 0,2 l/m 3,1 km/h (1 Bft) S 0,08 h 0,076 mm 181 W/m 16,9 C 19,3 C 4,3 km/h (1 Bft)
29/05/2008 19:00 19,0 C 86 % 1007,3 hPa 0,0 l/m 0,6 km/h (0 Bft) S-SE 0,00 h 0,102 mm 65 W/m 16,6 C 19,0 C 1,6 km/h (1 Bft)
29/05/2008 20:00 18,5 C 87 % 1007,5 hPa 0,0 l/m 6,8 km/h (2 Bft) O-NO 0,00 h 0,051 mm 23 W/m 16,3 C 18,5 C 9,3 km/h (2 Bft)
29/05/2008 21:00 17,5 C 89 % 1007,8 hPa 0,6 l/m 2,8 km/h (1 Bft) NE 0,00 h 0,025 mm 0 W/m 15,8 C 17,5 C 4,5 km/h (1 Bft)
29/05/2008 22:00 17,0 C 91 % 1007,4 hPa 0,0 l/m 7,2 km/h (2 Bft) O-NO 0,00 h 0,000 mm 0 W/m 15,5 C 17,0 C 9,5 km/h (2 Bft)
29/05/2008 23:00 16,7 C 92 % 1007,0 hPa 0,0 l/m 4,6 km/h (1 Bft) O 0,00 h 0,025 mm 0 W/m 15,4 C 16,7 C 6,4 km/h (2 Bft)
30/05/2008 00:00 16,4 C 92 % 1006,9 hPa 0,0 l/m 7,0 km/h (2 Bft) O 0,00 h 0,025 mm 0 W/m 15,1 C 16,4 C 9,4 km/h (2 Bft)
30/05/2008 01:00 16,0 C 91 % 1006,8 hPa 0,0 l/m 5,9 km/h (2 Bft) O-NO 0,00 h 0,025 mm 0 W/m 14,6 C 16,0 C 8,6 km/h (2 Bft)
30/05/2008 02:00 15,7 C 91 % 1006,9 hPa 0,0 l/m 2,0 km/h (1 Bft) O-NO 0,00 h 0,025 mm 0 W/m 14,2 C 15,7 C 3,5 km/h (1 Bft)
30/05/2008 03:00 16,1 C 91 % 1007,0 hPa 0,0 l/m 1,0 km/h (0 Bft) NO 0,00 h 0,025 mm 0 W/m 14,6 C 16,1 C 2,2 km/h (1 Bft)
30/05/2008 04:00 16,3 C 89 % 1007,2 hPa 0,0 l/m 1,8 km/h (1 Bft) N-NE 0,00 h 0,025 mm 0 W/m 14,5 C 16,3 C 3,6 km/h (1 Bft)
30/05/2008 05:00 16,5 C 89 % 1007,3 hPa 0,0 l/m 0,1 km/h (0 Bft) N-NE 0,00 h 0,025 mm 6 W/m 14,7 C 16,5 C 0,2 km/h (0 Bft)
30/05/2008 06:00 16,3 C 90 % 1007,6 hPa 0,0 l/m 0,4 km/h (0 Bft) E 0,35 h 0,000 mm 31 W/m 14,6 C 16,3 C 0,6 km/h (0 Bft)
30/05/2008 07:00 16,4 C 91 % 1008,1 hPa 1,2 l/m 1,2 km/h (1 Bft) O-NO 0,00 h 0,025 mm 38 W/m 14,9 C 16,4 C 2,1 km/h (1 Bft)
30/05/2008 08:00 16,6 C 92 % 1008,8 hPa 4,8 l/m 3,0 km/h (1 Bft) O-NO 0,00 h 0,025 mm 75 W/m 15,2 C 16,6 C 4,6 km/h (1 Bft)
30/05/2008 09:00 17,0 C 94 % 1009,7 hPa 0,0 l/m 2,7 km/h (1 Bft) NE 0,00 h 0,051 mm 113 W/m 16,0 C 17,0 C 4,1 km/h (1 Bft)
30/05/2008 10:00 16,4 C 94 % 1010,4 hPa 1,6 l/m 3,0 km/h (1 Bft) SE 0,00 h 0,076 mm 33 W/m 15,4 C 16,4 C 4,3 km/h (1 Bft)
30/05/2008 11:00 16,1 C 95 % 1011,2 hPa 1,8 l/m 2,4 km/h (1 Bft) S 0,00 h 0,025 mm 102 W/m 15,3 C 16,1 C 3,7 km/h (1 Bft)
30/05/2008 12:00 16,2 C 96 % 1011,4 hPa 1,2 l/m 1,5 km/h (1 Bft) S 0,00 h 0,051 mm 229 W/m 15,5 C 16,2 C 2,9 km/h (1 Bft)
30/05/2008 13:00 16,9 C 95 % 1011,4 hPa 0,0 l/m 1,0 km/h (0 Bft) S 0,00 h 0,127 mm 317 W/m 16,1 C 16,9 C 2,9 km/h (1 Bft)
30/05/2008 14:00 17,8 C 95 % 1011,2 hPa 0,0 l/m 4,2 km/h (1 Bft) S 0,00 h 0,178 mm 353 W/m 16,9 C 17,8 C 6,6 km/h (2 Bft)
30/05/2008 15:00 17,9 C 94 % 1011,3 hPa 0,0 l/m 9,9 km/h (2 Bft) S-SE 0,23 h 0,203 mm 345 W/m 16,9 C 17,9 C 13,2 km/h (3 Bft)
30/05/2008 16:00 19,1 C 82 % 1011,3 hPa 0,0 l/m 10,2 km/h (2 Bft) SO 0,98 h 0,203 mm 578 W/m 16,0 C 19,1 C 14,3 km/h (3 Bft)
30/05/2008 17:00 20,4 C 79 % 1011,5 hPa 0,0 l/m 4,2 km/h (1 Bft) S-SE 0,70 h 0,356 mm 475 W/m 16,7 C 20,4 C 7,6 km/h (2 Bft)
30/05/2008 18:00 18,5 C 87 % 1011,8 hPa 0,0 l/m 6,1 km/h (2 Bft) S-SE 0,00 h 0,279 mm 138 W/m 16,2 C 18,5 C 9,5 km/h (2 Bft)
30/05/2008 19:00 18,2 C 86 % 1012,2 hPa 0,0 l/m 5,1 km/h (1 Bft) S-SO 0,00 h 0,102 mm 98 W/m 15,9 C 18,2 C 7,3 km/h (2 Bft)
30/05/2008 20:00 17,5 C 88 % 1012,4 hPa 0,0 l/m 2,4 km/h (1 Bft) S-SO 0,00 h 0,076 mm 18 W/m 15,5 C 17,5 C 3,6 km/h (1 Bft)
30/05/2008 21:00 16,6 C 90 % 1012,7 hPa 0,0 l/m 0,9 km/h (0 Bft) S-SO 0,00 h 0,025 mm 0 W/m 14,9 C 16,6 C 1,8 km/h (1 Bft)
30/05/2008 22:00 15,6 C 91 % 1013,3 hPa 0,0 l/m 1,5 km/h (1 Bft) E-NE 0,00 h 0,000 mm 0 W/m 14,2 C 15,6 C 2,8 km/h (1 Bft)
30/05/2008 23:00 15,0 C 92 % 1013,9 hPa 0,0 l/m 0,3 km/h (0 Bft) E-NE 0,00 h 0,025 mm 0 W/m 13,7 C 15,0 C 1,0 km/h (0 Bft)
31/05/2008 00:00 14,8 C 93 % 1014,2 hPa 0,0 l/m 0,3 km/h (0 Bft) E-NE 0,00 h 0,000 mm 0 W/m 13,7 C 14,8 C 1,3 km/h (1 Bft)
31/05/2008 01:00 14,7 C 93 % 1014,2 hPa 0,0 l/m 0,5 km/h (0 Bft) NE 0,00 h 0,000 mm 0 W/m 13,6 C 14,7 C 0,7 km/h (0 Bft)
31/05/2008 02:00 14,2 C 93 % 1014,2 hPa 0,0 l/m 2,4 km/h (1 Bft) NO 0,00 h 0,000 mm 0 W/m 13,1 C 14,2 C 4,2 km/h (1 Bft)
31/05/2008 03:00 13,8 C 94 % 1014,1 hPa 0,0 l/m 2,4 km/h (1 Bft) NO 0,00 h 0,025 mm 0 W/m 12,8 C 13,8 C 4,1 km/h (1 Bft)
31/05/2008 04:00 13,7 C 94 % 1013,8 hPa 0,2 l/m 1,1 km/h (1 Bft) NO 0,00 h 0,000 mm 0 W/m 12,7 C 13,7 C 1,8 km/h (1 Bft)
31/05/2008 05:00 13,3 C 94 % 1014,0 hPa 0,0 l/m 2,8 km/h (1 Bft) NO 0,00 h 0,000 mm 5 W/m 12,3 C 13,3 C 5,0 km/h (1 Bft)
31/05/2008 06:00 13,7 C 94 % 1014,7 hPa 0,0 l/m 2,5 km/h (1 Bft) NO 0,00 h 0,000 mm 24 W/m 12,8 C 13,7 C 4,1 km/h (1 Bft)
31/05/2008 07:00 14,9 C 95 % 1015,1 hPa 0,0 l/m 0,1 km/h (0 Bft) NO 0,20 h 0,025 mm 118 W/m 14,1 C 14,9 C 0,4 km/h (0 Bft)
31/05/2008 08:00 16,2 C 93 % 1015,6 hPa 0,0 l/m 0,3 km/h (0 Bft) NO 0,23 h 0,051 mm 209 W/m 15,1 C 16,2 C 1,1 km/h (0 Bft)
31/05/2008 09:00 18,6 C 80 % 1015,2 hPa 0,0 l/m 2,4 km/h (1 Bft) E 1,00 h 0,127 mm 502 W/m 15,1 C 18,6 C 4,9 km/h (1 Bft)
31/05/2008 10:00 19,5 C 77 % 1015,5 hPa 0,0 l/m 3,9 km/h (1 Bft) S 0,87 h 0,279 mm 527 W/m 15,3 C 19,5 C 6,6 km/h (2 Bft)
31/05/2008 11:00 20,0 C 76 % 1015,9 hPa 0,0 l/m 6,0 km/h (2 Bft) S-SE 0,73 h 0,330 mm 512 W/m 15,7 C 20,0 C 9,5 km/h (2 Bft)
31/05/2008 12:00 20,3 C 79 % 1015,8 hPa 0,0 l/m 7,2 km/h (2 Bft) E 0,75 h 0,330 mm 527 W/m 16,4 C 20,3 C 10,6 km/h (2 Bft)
31/05/2008 13:00 20,7 C 80 % 1015,7 hPa 0,0 l/m 8,7 km/h (2 Bft) E 0,87 h 0,330 mm 700 W/m 17,1 C 20,7 C 13,2 km/h (3 Bft)
31/05/2008 14:00 20,8 C 80 % 1015,7 hPa 0,0 l/m 8,6 km/h (2 Bft) E 0,88 h 0,432 mm 767 W/m 17,1 C 20,8 C 13,5 km/h (3 Bft)
31/05/2008 15:00 20,7 C 77 % 1015,6 hPa 0,0 l/m 8,4 km/h (2 Bft) E 0,85 h 0,457 mm 715 W/m 16,6 C 20,7 C 12,9 km/h (3 Bft)
31/05/2008 16:00 20,5 C 78 % 1015,6 hPa 0,0 l/m 7,6 km/h (2 Bft) E 0,77 h 0,432 mm 527 W/m 16,5 C 20,5 C 12,2 km/h (2 Bft)
31/05/2008 17:00 18,9 C 84 % 1015,6 hPa 0,0 l/m 5,3 km/h (1 Bft) E 0,08 h 0,330 mm 225 W/m 16,2 C 18,9 C 9,1 km/h (2 Bft)
31/05/2008 18:00 18,1 C 88 % 1015,3 hPa 0,0 l/m 5,3 km/h (1 Bft) S-SE 0,00 h 0,152 mm 45 W/m 16,1 C 18,1 C 8,0 km/h (2 Bft)
31/05/2008 19:00 17,6 C 91 % 1015,5 hPa 0,0 l/m 2,9 km/h (1 Bft) SE 0,00 h 0,051 mm 69 W/m 16,1 C 17,6 C 5,0 km/h (1 Bft)
31/05/2008 20:00 17,4 C 91 % 1015,5 hPa 0,0 l/m 3,8 km/h (1 Bft) NE 0,00 h 0,051 mm 21 W/m 16,0 C 17,4 C 6,0 km/h (2 Bft)
31/05/2008 21:00 16,6 C 91 % 1015,5 hPa 0,0 l/m 2,6 km/h (1 Bft) E-NE 0,00 h 0,025 mm 0 W/m 15,1 C 16,6 C 3,9 km/h (1 Bft)
31/05/2008 22:00 16,0 C 92 % 1015,5 hPa 0,0 l/m 0,9 km/h (0 Bft) E-NE 0,00 h 0,000 mm 0 W/m 14,7 C 16,0 C 1,7 km/h (1 Bft)
31/05/2008 23:00 15,9 C 93 % 1015,8 hPa 0,0 l/m 3,2 km/h (1 Bft) N-NO 0,00 h 0,025 mm 0 W/m 14,7 C 15,9 C 5,1 km/h (1 Bft)
01/06/2008 00:00 16,0 C 93 % 1015,6 hPa 0,0 l/m 2,6 km/h (1 Bft) NO 0,00 h 0,000 mm 0 W/m 14,9 C 16,0 C 4,7 km/h (1 Bft)
01/06/2008 01:00 16,1 C 93 % 1015,5 hPa 0,0 l/m 4,0 km/h (1 Bft) NO 0,00 h 0,025 mm 0 W/m 15,0 C 16,1 C 6,4 km/h (2 Bft)
01/06/2008 02:00 16,0 C 92 % 1014,3 hPa 0,0 l/m 4,6 km/h (1 Bft) N 0,00 h 0,025 mm 0 W/m 14,7 C 16,0 C 7,4 km/h (2 Bft)
01/06/2008 03:00 16,0 C 90 % 1013,8 hPa 0,0 l/m 3,8 km/h (1 Bft) N-NE 0,00 h 0,025 mm 0 W/m 14,4 C 16,0 C 6,2 km/h (2 Bft)
01/06/2008 04:00 15,6 C 90 % 1013,9 hPa 0,0 l/m 0,9 km/h (0 Bft) NE 0,00 h 0,025 mm 0 W/m 14,0 C 15,6 C 1,9 km/h (1 Bft)
01/06/2008 05:00 15,3 C 90 % 1014,4 hPa 0,0 l/m 1,2 km/h (1 Bft) O-NO 0,00 h 0,025 mm 5 W/m 13,7 C 15,3 C 1,9 km/h (1 Bft)
01/06/2008 06:00 15,1 C 90 % 1013,9 hPa 0,0 l/m 0,9 km/h (0 Bft) NO 0,02 h 0,000 mm 30 W/m 13,4 C 15,1 C 1,8 km/h (1 Bft)
01/06/2008 07:00 16,0 C 88 % 1014,1 hPa 0,0 l/m 2,1 km/h (1 Bft) S-SE 0,37 h 0,025 mm 142 W/m 14,1 C 16,0 C 4,0 km/h (1 Bft)
01/06/2008 08:00 17,5 C 82 % 1014,2 hPa 0,0 l/m 1,6 km/h (1 Bft) E-NE 0,27 h 0,076 mm 181 W/m 14,4 C 17,5 C 3,4 km/h (1 Bft)
01/06/2008 09:00 19,7 C 75 % 1014,1 hPa 0,0 l/m 3,5 km/h (1 Bft) N 0,78 h 0,102 mm 415 W/m 15,2 C 19,7 C 6,7 km/h (2 Bft)
01/06/2008 10:00 19,9 C 71 % 1014,0 hPa 0,0 l/m 7,7 km/h (2 Bft) E-NE 0,05 h 0,254 mm 195 W/m 14,5 C 19,9 C 11,3 km/h (2 Bft)
01/06/2008 11:00 20,1 C 74 % 1012,9 hPa 0,0 l/m 3,6 km/h (1 Bft) NE 0,00 h 0,152 mm 290 W/m 15,2 C 20,1 C 6,1 km/h (2 Bft)
01/06/2008 12:00 22,0 C 69 % 1012,8 hPa 0,0 l/m 8,7 km/h (2 Bft) E 0,80 h 0,178 mm 554 W/m 15,9 C 22,0 C 12,6 km/h (3 Bft)
01/06/2008 13:00 23,5 C 63 % 1012,6 hPa 0,0 l/m 12,9 km/h (3 Bft) E-NE 1,00 h 0,381 mm 806 W/m 16,1 C 23,5 C 19,0 km/h (3 Bft)
01/06/2008 14:00 23,1 C 61 % 1012,7 hPa 0,0 l/m 22,4 km/h (4 Bft) E-NE 1,00 h 0,559 mm 727 W/m 15,3 C 23,1 C 29,9 km/h (5 Bft)
01/06/2008 15:00 23,2 C 60 % 1012,3 hPa 0,0 l/m 21,4 km/h (4 Bft) E-NE 1,00 h 0,584 mm 743 W/m 15,0 C 23,2 C 28,8 km/h (4 Bft)
01/06/2008 16:00 22,1 C 64 % 1011,8 hPa 0,0 l/m 17,3 km/h (3 Bft) E-NE 0,32 h 0,584 mm 404 W/m 14,9 C 22,1 C 24,0 km/h (4 Bft)
01/06/2008 17:00 21,8 C 63 % 1011,4 hPa 0,0 l/m 15,1 km/h (3 Bft) E 0,63 h 0,330 mm 370 W/m 14,4 C 21,8 C 21,1 km/h (4 Bft)
01/06/2008 18:00 22,5 C 59 % 1011,0 hPa 0,0 l/m 6,7 km/h (2 Bft) E-NE 0,57 h 0,305 mm 249 W/m 14,1 C 22,5 C 10,7 km/h (2 Bft)
01/06/2008 19:00 21,7 C 60 % 1011,2 hPa 0,0 l/m 4,4 km/h (1 Bft) E 0,00 h 0,203 mm 50 W/m 13,6 C 21,7 C 8,5 km/h (2 Bft)
01/06/2008 20:00 20,4 C 65 % 1012,2 hPa 0,0 l/m 9,4 km/h (2 Bft) E 0,00 h 0,076 mm 16 W/m 13,6 C 20,4 C 14,8 km/h (3 Bft)
01/06/2008 21:00 19,6 C 69 % 1012,7 hPa 0,0 l/m 8,4 km/h (2 Bft) E-NE 0,00 h 0,076 mm 0 W/m 13,7 C 19,6 C 12,7 km/h (3 Bft)
01/06/2008 22:00 18,6 C 78 % 1013,5 hPa 1,0 l/m 9,2 km/h (2 Bft) E-NE 0,00 h 0,051 mm 0 W/m 14,6 C 18,6 C 13,8 km/h (3 Bft)
01/06/2008 23:00 16,9 C 87 % 1013,7 hPa 0,6 l/m 4,1 km/h (1 Bft) N-NO 0,00 h 0,051 mm 0 W/m 14,6 C 16,9 C 7,1 km/h (2 Bft)
Min-Date _ 31/05/08 27/05/08 27/05/08 - 26/05/08 - - - - 27/05/08 31/05/08 26/05/08
_ Min-Heure 05:42 18:28 17:00 - 00:06 - - - - 06:39 05:42 00:07
Minimum _ 13,1 C 39 % 1004,5 hPa - 0,0 km/h (0 Bft) - - - - 9,1 C 13,1 C 0,0 km/h (0 Bft)
Max-Date _ 27/05/08 31/05/08 31/05/08 29/05/08 27/05/08 - 26/05/08 01/06/08 31/05/08 29/05/08 27/05/08 27/05/08
_ Max-Heure 13:36 03:20 11:45 09:36 16:57 - 14:44 15:00 14:20 14:05 13:36 14:09
Maximum _ 26,1 C 98 % 1016,1 hPa 8,6 l/m 43,5 km/h
E-NE (6 Bft)
- 0,02 h 0,584 mm 1109 W/m 18,9 C 26,1 C 53,1 km/h
E-NE (7 Bft)
Moyenne _ 18,9 C 79 % 1010,5 hPa #48,4 l/m 6,3 km/h (2 Bft) E-NE #20:56 h #19,848 mm 214 W/m 14,8 C 18,9 C 9,5 km/h (2 Bft)
Roquefort les pins